Time;durP1;ratioP1;P1;durP2;ratioP2;P2;SDS_P1;SDS_P2;PMS_P1;PMS_P2;Temp;Humidity;BMP_temperature;BMP_pressure;BME280_temperature;BME280_humidity;BME280_pressure;Samples;Min_cycle;Max_cycle;Signal;HPM_P1;HPM_P2
2022/01/12 00:01:55;;;;;;;11.87;8.30;;;-2.00;99.90;;;;;;4940295;29;20215;-78
2022/01/12 00:04:21;;;;;;;11.33;8.33;;;-1.80;99.90;;;;;;4940385;29;20175;-78
2022/01/12 00:06:46;;;;;;;11.10;8.33;;;-1.80;99.90;;;;;;4947153;29;20218;-78
2022/01/12 00:09:12;;;;;;;10.90;8.10;;;-1.80;99.90;;;;;;4954036;29;20191;-77
2022/01/12 00:11:37;;;;;;;12.60;8.57;;;-1.80;99.90;;;;;;4956011;29;20175;-77
2022/01/12 00:14:04;;;;;;;12.77;9.93;;;-1.90;99.90;;;;;;4942929;29;20185;-78
2022/01/12 00:16:30;;;;;;;12.63;8.20;;;-2.00;99.90;;;;;;4950321;29;20206;-78
2022/01/12 00:18:56;;;;;;;11.03;8.37;;;-2.00;99.90;;;;;;4948342;29;20199;-78
2022/01/12 00:21:21;;;;;;;11.00;8.13;;;-2.00;99.90;;;;;;4941152;29;20171;-78
2022/01/12 00:23:47;;;;;;;13.77;8.87;;;-2.00;99.90;;;;;;4941033;29;20543;-79
2022/01/12 00:26:36;;;;;;;12.97;8.70;;;-2.00;99.90;;;;;;4939916;29;20195;-79
2022/01/12 00:34:30;;;;;;;11.00;7.80;;;-2.10;99.90;;;;;;4938949;29;20220;-77
2022/01/12 00:36:56;;;;;;;11.43;7.90;;;-2.20;99.90;;;;;;4939750;29;20271;-78
2022/01/12 00:39:22;;;;;;;11.90;8.30;;;-2.30;99.90;;;;;;4939380;29;20175;-78
2022/01/12 00:41:47;;;;;;;10.43;8.03;;;-2.30;99.90;;;;;;4940216;29;20179;-79
2022/01/12 00:44:22;;;;;;;11.77;8.40;;;-2.30;99.90;;;;;;4941678;29;20212;-80
2022/01/12 00:46:50;;;;;;;12.83;8.03;;;-2.30;99.90;;;;;;4942524;29;20218;-79
2022/01/12 00:49:16;;;;;;;11.43;8.53;;;-2.30;99.90;;;;;;4942763;29;20183;-80
2022/01/12 00:51:41;;;;;;;11.07;8.00;;;-2.30;99.90;;;;;;4943720;29;20202;-81
2022/01/12 00:54:08;;;;;;;11.17;8.27;;;-2.30;99.90;;;;;;4944023;29;20215;-82
2022/01/12 00:56:34;;;;;;;11.90;8.87;;;-2.20;99.90;;;;;;4944528;29;20278;-81
2022/01/12 00:59:00;;;;;;;13.20;8.37;;;-2.30;99.90;;;;;;4945700;29;20637;-81
2022/01/12 01:01:26;;;;;;;12.10;8.87;;;-2.40;99.90;;;;;;4945816;29;20199;-82
2022/01/12 01:03:52;;;;;;;10.63;8.43;;;-2.40;99.90;;;;;;4947469;29;20304;-81
2022/01/12 01:06:19;;;;;;;14.33;9.10;;;-2.40;99.90;;;;;;4947540;29;20211;-82
2022/01/12 01:08:50;;;;;;;10.67;7.77;;;-2.40;99.90;;;;;;4947918;29;20551;-81
2022/01/12 01:11:17;;;;;;;13.80;9.97;;;-2.40;99.90;;;;;;4948470;29;20187;-82
2022/01/12 01:13:55;;;;;;;14.37;9.83;;;-2.40;99.90;;;;;;4946976;29;20176;-81
2022/01/12 01:16:27;;;;;;;13.70;9.20;;;-2.40;99.90;;;;;;4943062;29;20199;-80
2022/01/12 01:27:06;;;;;;;12.43;8.47;;;-2.60;99.90;;;;;;4940631;29;20237;-78
2022/01/12 01:29:31;;;;;;;11.53;8.07;;;-2.60;99.90;;;;;;4940706;29;20172;-79
2022/01/12 01:31:57;;;;;;;10.63;8.10;;;-2.60;99.90;;;;;;4940499;29;20198;-79
2022/01/12 01:34:23;;;;;;;9.90;7.30;;;-2.60;99.90;;;;;;4939151;29;20191;-80
2022/01/12 01:36:52;;;;;;;8.27;6.70;;;-2.60;99.90;;;;;;4939506;29;20350;-79
2022/01/12 01:39:20;;;;;;;12.60;8.20;;;-2.60;99.90;;;;;;4940564;29;20189;-78
2022/01/12 01:42:12;;;;;;;11.07;8.53;;;-2.70;99.90;;;;;;4938837;29;20655;-79
2022/01/12 01:55:18;;;;;;;11.77;8.50;;;-2.80;99.90;;;;;;4939006;29;20237;-79
2022/01/12 01:57:44;;;;;;;10.37;7.97;;;-2.90;99.90;;;;;;4942148;29;20219;-80
2022/01/12 02:00:15;;;;;;;12.80;8.77;;;-2.90;99.90;;;;;;4944008;29;20179;-79
2022/01/12 02:02:42;;;;;;;11.00;8.57;;;-2.80;99.90;;;;;;4942684;29;20186;-78
2022/01/12 02:05:07;;;;;;;12.57;9.03;;;-2.80;99.90;;;;;;4942502;29;20199;-78
2022/01/12 02:07:34;;;;;;;9.73;7.13;;;-2.90;99.90;;;;;;4942759;29;20594;-78
2022/01/12 02:09:59;;;;;;;11.17;8.40;;;-2.90;99.90;;;;;;4943025;29;20258;-78
2022/01/12 02:12:27;;;;;;;11.53;8.30;;;-2.90;99.90;;;;;;4942716;29;20265;-80
2022/01/12 02:14:55;;;;;;;13.90;8.70;;;-2.90;99.90;;;;;;4943158;29;20207;-79
2022/01/12 02:17:25;;;;;;;11.30;8.50;;;-2.80;99.90;;;;;;4943319;29;20270;-78
2022/01/12 02:36:23;;;;;;;13.13;8.87;;;-3.20;99.90;;;;;;4940038;29;20253;-79
2022/01/12 02:41:33;;;;;;;12.87;8.93;;;-3.20;99.90;;;;;;4940086;29;20327;-79
2022/01/12 02:54:46;;;;;;;11.80;9.20;;;-3.20;99.90;;;;;;4939152;29;20187;-80
2022/01/12 02:57:12;;;;;;;12.27;8.43;;;-3.20;99.90;;;;;;4939066;29;20306;-78
2022/01/12 02:59:45;;;;;;;10.97;8.90;;;-3.30;99.90;;;;;;4939042;29;20295;-78
2022/01/12 03:02:26;;;;;;;11.60;8.93;;;-3.30;99.90;;;;;;4938804;29;20226;-79
2022/01/12 03:05:12;;;;;;;14.47;8.33;;;-3.30;99.90;;;;;;4938362;29;20206;-79
2022/01/12 03:07:39;;;;;;;12.10;9.27;;;-3.30;99.90;;;;;;4938651;29;20191;-79
2022/01/12 03:10:06;;;;;;;14.37;9.67;;;-3.30;99.90;;;;;;4940260;29;20211;-79
2022/01/12 03:12:35;;;;;;;11.83;9.13;;;-3.30;99.90;;;;;;4939598;29;20189;-79
2022/01/12 03:15:00;;;;;;;11.77;8.40;;;-3.30;99.90;;;;;;4939263;29;20207;-78
2022/01/12 03:17:26;;;;;;;12.07;8.30;;;-3.40;99.90;;;;;;4938603;29;20215;-79
2022/01/12 03:19:51;;;;;;;12.17;9.50;;;-3.40;99.90;;;;;;4939370;29;20263;-78
2022/01/12 03:22:17;;;;;;;12.87;9.57;;;-3.40;99.90;;;;;;4939989;29;20193;-79
2022/01/12 03:24:42;;;;;;;15.00;9.73;;;-3.40;99.90;;;;;;4939723;29;20179;-79
2022/01/12 03:27:12;;;;;;;14.20;9.57;;;-3.40;99.90;;;;;;4939881;29;20864;-79
2022/01/12 03:29:41;;;;;;;15.47;9.23;;;-3.40;99.90;;;;;;4939810;29;20528;-80
2022/01/12 03:32:10;;;;;;;12.90;9.10;;;-3.40;99.90;;;;;;4939841;29;20254;-80
2022/01/12 03:34:37;;;;;;;13.10;8.37;;;-3.40;99.90;;;;;;4938021;29;20188;-79
2022/01/12 03:37:40;;;;;;;11.33;9.03;;;-3.50;99.90;;;;;;4939122;29;20218;-78
2022/01/12 03:40:05;;;;;;;15.37;10.57;;;-3.50;99.90;;;;;;4939465;29;20190;-79
2022/01/12 03:42:31;;;;;;;15.07;10.70;;;-3.60;99.90;;;;;;4939841;29;20187;-78
2022/01/12 03:44:56;;;;;;;15.37;10.60;;;-3.60;99.90;;;;;;4939661;29;20258;-78
2022/01/12 03:47:22;;;;;;;14.97;10.30;;;-3.50;99.90;;;;;;4940488;29;20187;-78
2022/01/12 03:49:47;;;;;;;12.90;10.23;;;-3.60;99.90;;;;;;4941335;29;20179;-78
2022/01/12 03:52:13;;;;;;;13.80;10.90;;;-3.60;99.90;;;;;;4941035;29;20227;-78
2022/01/12 03:54:39;;;;;;;15.60;11.23;;;-3.50;99.90;;;;;;4940062;29;20190;-79
2022/01/12 03:57:05;;;;;;;15.23;11.10;;;-3.60;99.90;;;;;;4941019;29;20241;-78
2022/01/12 03:59:31;;;;;;;15.47;11.40;;;-3.70;99.90;;;;;;4941204;29;20186;-78
2022/01/12 04:01:57;;;;;;;13.33;10.07;;;-3.70;99.90;;;;;;4940590;29;20563;-79
2022/01/12 04:04:31;;;;;;;12.20;9.20;;;-3.70;99.90;;;;;;4939409;29;20183;-78
2022/01/12 04:09:41;;;;;;;13.87;9.47;;;-3.70;99.90;;;;;;4940205;29;20274;-78
2022/01/12 04:12:07;;;;;;;14.03;10.23;;;-3.70;99.90;;;;;;4940027;29;20175;-79
2022/01/12 04:14:33;;;;;;;15.63;10.07;;;-3.70;99.90;;;;;;4939590;29;20578;-79
2022/01/12 04:16:58;;;;;;;15.80;10.83;;;-3.70;99.90;;;;;;4940003;29;20215;-79
2022/01/12 04:19:25;;;;;;;13.87;10.13;;;-3.70;99.90;;;;;;4940140;29;20186;-79
2022/01/12 04:21:51;;;;;;;14.73;10.67;;;-3.70;99.90;;;;;;4939236;29;20282;-79
2022/01/12 04:24:16;;;;;;;13.20;9.57;;;-3.70;99.90;;;;;;4938921;29;20704;-80
2022/01/12 04:26:42;;;;;;;13.17;8.30;;;-3.70;99.90;;;;;;4938763;29;20207;-79
2022/01/12 04:29:08;;;;;;;12.57;8.67;;;-3.80;99.90;;;;;;4938772;29;20269;-79
2022/01/12 04:31:35;;;;;;;11.57;8.43;;;-3.90;99.90;;;;;;4939322;29;20246;-79
2022/01/12 04:34:00;;;;;;;11.37;8.57;;;-3.90;99.90;;;;;;4940170;29;20527;-78
2022/01/12 04:36:26;;;;;;;11.90;8.20;;;-3.90;99.90;;;;;;4938429;29;20268;-79
2022/01/12 04:38:52;;;;;;;11.57;8.40;;;-4.00;99.90;;;;;;4938785;29;20704;-78
2022/01/12 04:41:17;;;;;;;12.57;8.80;;;-4.00;99.90;;;;;;4938101;29;20278;-79
2022/01/12 04:43:44;;;;;;;12.13;9.10;;;-4.00;99.90;;;;;;4938004;29;20644;-79
2022/01/12 04:51:07;;;;;;;12.77;9.20;;;-3.90;99.90;;;;;;4977344;23;20222;-77
2022/01/12 04:53:33;;;;;;;14.87;9.30;;;-3.90;99.90;;;;;;4954522;29;20217;-76
2022/01/12 04:55:59;;;;;;;17.10;11.10;;;-3.90;99.90;;;;;;4955615;28;20206;-78
2022/01/12 04:58:27;;;;;;;13.37;10.03;;;-3.80;99.90;;;;;;4958863;28;20211;-79
2022/01/12 05:00:56;;;;;;;14.40;10.33;;;-3.90;99.90;;;;;;4958570;28;20186;-76
2022/01/12 05:14:41;;;;;;;12.33;8.77;;;-4.00;99.90;;;;;;4962530;29;20207;-76
2022/01/12 05:17:07;;;;;;;17.80;10.77;;;-4.00;99.90;;;;;;4962746;29;20213;-74
2022/01/12 05:19:33;;;;;;;13.97;10.03;;;-4.00;99.90;;;;;;4955408;29;20278;-74
2022/01/12 05:21:58;;;;;;;14.67;10.43;;;-4.00;99.90;;;;;;4954022;29;20186;-75
2022/01/12 05:24:24;;;;;;;12.90;8.70;;;-4.10;99.90;;;;;;4953824;29;20719;-76
2022/01/12 05:26:49;;;;;;;13.93;9.00;;;-4.10;99.90;;;;;;4954422;29;20246;-77
2022/01/12 05:29:15;;;;;;;14.10;9.53;;;-4.10;99.90;;;;;;4954283;28;20179;-77
2022/01/12 05:31:40;;;;;;;14.40;8.97;;;-4.10;99.90;;;;;;4953813;28;20187;-76
2022/01/12 05:34:06;;;;;;;13.37;9.10;;;-4.20;99.90;;;;;;4954039;28;20210;-76
2022/01/12 05:36:32;;;;;;;13.87;9.93;;;-4.20;99.90;;;;;;4953305;29;20205;-75
2022/01/12 05:38:59;;;;;;;20.30;11.73;;;-4.10;99.90;;;;;;4953867;28;20183;-75
2022/01/12 05:41:25;;;;;;;20.73;11.83;;;-4.00;99.90;;;;;;4953899;28;20189;-76
2022/01/12 05:43:51;;;;;;;16.50;11.10;;;-3.90;99.90;;;;;;4953744;28;20181;-75
2022/01/12 05:46:22;;;;;;;15.57;11.37;;;-3.90;99.90;;;;;;4953649;29;20190;-75
2022/01/12 05:51:31;;;;;;;19.70;11.33;;;-3.80;99.90;;;;;;4953865;29;20563;-76
2022/01/12 05:53:57;;;;;;;15.20;10.23;;;-3.90;99.90;;;;;;4953605;28;20175;-75
2022/01/12 05:56:23;;;;;;;21.33;14.03;;;-4.10;99.90;;;;;;4953214;29;20210;-75
2022/01/12 05:58:50;;;;;;;19.23;13.13;;;-4.20;99.90;;;;;;4953689;28;20214;-75
2022/01/12 06:01:16;;;;;;;15.97;10.13;;;-4.10;99.90;;;;;;4944540;29;20198;-75
2022/01/12 06:03:42;;;;;;;19.23;10.67;;;-4.30;99.90;;;;;;4934717;29;20183;-76
2022/01/12 06:06:07;;;;;;;17.17;9.43;;;-4.50;99.90;;;;;;4933611;29;20195;-75
2022/01/12 06:08:33;;;;;;;16.83;10.13;;;-4.50;99.90;;;;;;4935247;29;20226;-75
2022/01/12 06:10:59;;;;;;;15.33;10.37;;;-4.40;99.90;;;;;;4934298;29;20206;-75
2022/01/12 06:13:24;;;;;;;16.97;11.20;;;-4.20;99.90;;;;;;4934455;29;20525;-75
2022/01/12 06:15:50;;;;;;;18.37;11.50;;;-4.20;99.90;;;;;;4934038;29;20705;-76
2022/01/12 06:18:15;;;;;;;18.33;11.47;;;-4.20;99.90;;;;;;4934337;29;20215;-76
2022/01/12 06:20:41;;;;;;;17.87;12.27;;;-4.10;99.90;;;;;;4934256;29;20172;-76
2022/01/12 06:23:06;;;;;;;16.50;11.73;;;-4.10;99.90;;;;;;4934219;29;20261;-75
2022/01/12 06:25:32;;;;;;;27.20;12.20;;;-4.20;99.90;;;;;;4933558;29;20203;-76
2022/01/12 06:27:59;;;;;;;19.50;12.87;;;-4.20;99.90;;;;;;4934596;29;20322;-76
2022/01/12 06:32:56;;;;;;;28.23;16.87;;;-4.00;99.90;;;;;;4934396;29;20180;-76
2022/01/12 06:35:23;;;;;;;27.80;16.33;;;-4.00;99.90;;;;;;4933592;29;20332;-75
2022/01/12 06:37:49;;;;;;;25.37;17.30;;;-4.00;99.90;;;;;;4934031;29;20673;-75
2022/01/12 06:40:16;;;;;;;22.10;14.70;;;-4.00;99.90;;;;;;4934367;29;20179;-76
2022/01/12 06:42:42;;;;;;;21.47;13.40;;;-4.00;99.90;;;;;;4934313;29;20191;-76
2022/01/12 06:45:09;;;;;;;21.90;13.30;;;-4.00;99.90;;;;;;4935874;29;20194;-76
2022/01/12 06:47:35;;;;;;;23.13;14.30;;;-4.00;99.90;;;;;;4920405;29;20210;-77
2022/01/12 06:50:00;;;;;;;19.77;12.10;;;-4.10;99.90;;;;;;4937318;29;20707;-76
2022/01/12 06:52:26;;;;;;;20.13;10.90;;;-4.20;99.90;;;;;;4937389;29;20183;-76
2022/01/12 06:54:51;;;;;;;19.10;10.67;;;-4.40;99.90;;;;;;4936718;29;20192;-76
2022/01/12 06:57:17;;;;;;;14.80;10.97;;;-4.40;99.90;;;;;;4938283;29;20207;-76
2022/01/12 06:59:43;;;;;;;14.33;10.20;;;-4.50;99.90;;;;;;4937936;29;20175;-76
2022/01/12 07:02:09;;;;;;;16.67;11.10;;;-4.50;99.90;;;;;;4937502;29;20190;-76
2022/01/12 07:04:35;;;;;;;16.93;11.83;;;-4.40;99.90;;;;;;4936853;29;20183;-76
2022/01/12 07:07:02;;;;;;;20.77;12.33;;;-4.40;99.90;;;;;;4937496;29;20597;-76
2022/01/12 07:09:27;;;;;;;18.53;11.93;;;-4.40;99.90;;;;;;4937382;29;20194;-76
2022/01/12 07:11:53;;;;;;;18.30;12.10;;;-4.40;99.90;;;;;;4937740;29;20183;-78
2022/01/12 07:14:18;;;;;;;21.13;13.90;;;-4.40;99.90;;;;;;4936870;29;20187;-76
2022/01/12 07:16:44;;;;;;;21.53;13.80;;;-4.30;99.90;;;;;;4936751;29;20207;-77
2022/01/12 07:19:09;;;;;;;20.03;12.73;;;-4.20;99.90;;;;;;4937176;29;20183;-76
2022/01/12 07:21:35;;;;;;;22.47;13.07;;;-4.20;99.90;;;;;;4937023;29;20179;-76
2022/01/12 07:24:00;;;;;;;23.93;12.50;;;-4.30;99.90;;;;;;4937048;29;20588;-77
2022/01/12 07:26:26;;;;;;;27.60;12.50;;;-4.30;99.90;;;;;;4938630;29;20199;-77
2022/01/12 07:28:53;;;;;;;20.73;12.73;;;-4.30;99.90;;;;;;4937105;29;20179;-76
2022/01/12 07:31:19;;;;;;;20.47;13.50;;;-4.10;99.90;;;;;;4937029;29;20275;-78
2022/01/12 07:33:44;;;;;;;19.53;12.30;;;-3.90;99.90;;;;;;4936967;29;20270;-76
2022/01/12 07:36:10;;;;;;;21.73;12.33;;;-3.70;99.90;;;;;;4936135;29;20200;-76
2022/01/12 07:38:35;;;;;;;20.97;11.77;;;-3.30;99.90;;;;;;4936492;29;20290;-76
2022/01/12 07:41:01;;;;;;;19.43;12.20;;;-2.80;43.80;;;;;;4936581;29;20644;-75
2022/01/12 07:43:27;;;;;;;19.33;10.97;;;-1.80;1.00;;;;;;4936739;29;20575;-77
2022/01/12 07:45:52;;;;;;;17.87;12.27;;;-1.10;99.90;;;;;;4935907;29;20202;-76
2022/01/12 07:48:18;;;;;;;16.23;9.40;;;-1.00;99.90;;;;;;4936565;29;20269;-76
2022/01/12 07:50:44;;;;;;;15.23;10.70;;;-0.90;1.00;;;;;;4936306;29;20270;-76
2022/01/12 07:53:13;;;;;;;19.90;10.53;;;-0.60;1.00;;;;;;4936185;29;20179;-75
2022/01/12 07:55:38;;;;;;;35.73;11.93;;;0.10;99.90;;;;;;4935100;29;20590;-77
2022/01/12 07:58:04;;;;;;;30.17;10.53;;;0.10;1.00;;;;;;4936404;29;20221;-76
2022/01/12 08:00:30;;;;;;;20.80;10.83;;;0.10;1.00;;;;;;4936343;29;20212;-75
2022/01/12 08:02:55;;;;;;;19.30;10.53;;;-0.10;99.90;;;;;;4936269;29;20274;-76
2022/01/12 08:05:21;;;;;;;17.97;10.53;;;0.20;1.00;;;;;;4936096;29;20209;-76
2022/01/12 08:07:48;;;;;;;22.97;10.40;;;0.70;1.00;;;;;;4939827;29;20171;-78
2022/01/12 08:10:14;;;;;;;16.37;10.30;;;0.80;99.90;;;;;;4936505;29;20597;-75
2022/01/12 08:12:40;;;;;;;13.03;10.33;;;1.40;99.90;;;;;;4936127;29;20183;-76
2022/01/12 08:15:07;;;;;;;13.83;10.83;;;2.80;1.00;;;;;;4935388;29;20254;-76
2022/01/12 08:17:33;;;;;;;14.27;10.83;;;3.20;1.00;;;;;;4935791;29;20684;-76
2022/01/12 08:20:01;;;;;;;14.63;10.53;;;2.70;1.00;;;;;;4936558;29;20633;-76
2022/01/12 08:22:27;;;;;;;19.73;11.67;;;2.20;99.90;;;;;;4937381;29;20714;-76
2022/01/12 08:24:52;;;;;;;16.37;11.20;;;2.00;1.00;;;;;;4935640;29;20775;-78
2022/01/12 08:27:18;;;;;;;19.47;10.80;;;2.90;9.50;;;;;;4936863;29;20187;-77
2022/01/12 08:29:44;;;;;;;14.23;10.10;;;3.80;1.00;;;;;;4938292;29;20226;-79
2022/01/12 08:32:09;;;;;;;19.50;9.87;;;3.60;99.90;;;;;;4947367;29;20164;-78
2022/01/12 08:34:36;;;;;;;14.07;9.33;;;3.90;99.90;;;;;;4954515;29;20189;-78
2022/01/12 08:37:02;;;;;;;12.93;9.07;;;4.20;99.90;;;;;;4960787;28;20722;-80
2022/01/12 08:39:27;;;;;;;16.63;9.83;;;4.90;90.70;;;;;;4956234;28;20207;-77
2022/01/12 08:41:53;;;;;;;17.60;10.10;;;5.60;1.00;;;;;;4950749;28;20568;-77
2022/01/12 08:44:18;;;;;;;13.43;10.83;;;6.20;1.00;;;;;;4943749;28;20608;-77
2022/01/12 08:46:44;;;;;;;14.93;11.27;;;5.80;1.00;;;;;;4944865;28;20202;-76
2022/01/12 08:49:09;;;;;;;13.50;10.93;;;6.10;1.00;;;;;;4945791;28;20569;-76
2022/01/12 08:51:36;;;;;;;14.90;10.30;;;5.60;1.00;;;;;;4943284;29;20652;-76
2022/01/12 08:54:03;;;;;;;16.40;11.43;;;6.00;1.00;;;;;;4940428;29;20182;-77
2022/01/12 08:56:28;;;;;;;14.40;10.70;;;6.60;1.00;;;;;;4935560;29;20286;-77
2022/01/12 08:58:54;;;;;;;11.97;10.73;;;6.90;1.00;;;;;;4938333;29;20309;-77
2022/01/12 09:01:20;;;;;;;13.80;12.17;;;6.90;1.00;;;;;;4942921;29;20210;-77
2022/01/12 09:03:46;;;;;;;12.23;10.93;;;7.20;1.00;;;;;;4944326;29;20179;-75
2022/01/12 09:06:11;;;;;;;12.30;10.63;;;7.00;1.00;;;;;;4937169;29;20574;-79
2022/01/12 09:08:38;;;;;;;11.23;10.10;;;7.70;1.00;;;;;;4941761;29;20179;-77
2022/01/12 09:11:04;;;;;;;12.07;10.77;;;7.70;1.00;;;;;;4945942;29;20218;-79
2022/01/12 09:13:30;;;;;;;11.43;10.23;;;6.80;1.00;;;;;;4945427;29;20191;-77
2022/01/12 09:15:56;;;;;;;12.03;10.20;;;6.60;1.00;;;;;;4939285;29;20270;-74
2022/01/12 09:18:22;;;;;;;12.33;11.03;;;5.80;1.00;;;;;;4968773;29;20202;-78
2022/01/12 09:20:49;;;;;;;12.17;10.87;;;5.10;1.00;;;;;;4970573;28;20182;-78
2022/01/12 09:23:15;;;;;;;11.67;10.37;;;5.30;1.00;;;;;;4938807;29;20202;-77
2022/01/12 09:25:41;;;;;;;11.90;10.60;;;4.80;1.00;;;;;;4953844;29;20195;-77
2022/01/12 09:28:07;;;;;;;11.37;10.17;;;5.00;1.00;;;;;;4935329;29;20202;-77
2022/01/12 09:30:34;;;;;;;10.43;9.33;;;6.00;1.00;;;;;;4935328;29;20738;-77
2022/01/12 09:32:59;;;;;;;10.97;9.87;;;6.40;1.00;;;;;;4934692;29;20183;-77
2022/01/12 09:35:26;;;;;;;12.57;10.37;;;7.00;1.00;;;;;;4934810;29;20319;-77
2022/01/12 09:37:52;;;;;;;12.23;10.20;;;7.30;1.00;;;;;;4939980;29;20309;-77
2022/01/12 09:40:18;;;;;;;14.53;9.97;;;7.50;1.00;;;;;;4944667;29;20254;-77
2022/01/12 09:42:46;;;;;;;10.63;9.50;;;7.30;1.00;;;;;;4945286;29;20182;-76
2022/01/12 09:45:15;;;;;;;10.87;9.77;;;7.20;1.00;;;;;;4945455;29;20199;-77
2022/01/12 09:47:42;;;;;;;13.70;9.83;;;7.50;1.00;;;;;;4945960;28;20210;-77
2022/01/12 09:50:12;;;;;;;10.57;9.53;;;7.50;1.00;;;;;;4944509;29;20314;-77
2022/01/12 09:52:38;;;;;;;10.77;9.67;;;7.50;1.00;;;;;;4937469;29;20226;-77
2022/01/12 09:55:04;;;;;;;14.20;9.90;;;8.10;1.00;;;;;;4944326;29;20278;-76
2022/01/12 09:57:30;;;;;;;12.57;9.57;;;7.70;1.00;;;;;;4946649;29;20612;-77
2022/01/12 09:59:56;;;;;;;11.43;10.23;;;6.20;1.00;;;;;;4945985;28;20250;-81
2022/01/12 10:02:22;;;;;;;12.23;10.10;;;5.70;1.00;;;;;;4954233;28;20182;-79
2022/01/12 10:04:58;;;;;;;12.47;10.67;;;6.20;1.00;;;;;;4953843;28;20198;-76
2022/01/12 10:07:25;;;;;;;11.13;9.90;;;7.80;1.00;;;;;;4953651;29;20182;-76
2022/01/12 10:09:54;;;;;;;10.57;9.47;;;8.90;1.00;;;;;;4953867;28;20197;-77
2022/01/12 10:12:21;;;;;;;10.83;9.73;;;10.20;1.00;;;;;;4954334;28;20181;-76
2022/01/12 10:14:52;;;;;;;10.73;9.50;;;9.60;1.00;;;;;;4958788;28;20269;-78
2022/01/12 10:17:39;;;;;;;11.10;10.00;;;8.70;1.00;;;;;;4957205;28;20297;-79
2022/01/12 10:20:06;;;;;;;13.03;11.43;;;8.50;1.00;;;;;;4959782;28;20258;-77
2022/01/12 10:22:32;;;;;;;14.30;12.70;;;7.00;1.00;;;;;;4968144;29;20202;-78
2022/01/12 10:25:01;;;;;;;11.67;10.33;;;5.70;1.00;;;;;;4962697;29;20199;-78
2022/01/12 10:27:27;;;;;;;12.77;9.87;;;5.20;1.00;;;;;;4960709;29;20194;-79
2022/01/12 10:30:00;;;;;;;12.10;10.23;;;4.90;1.00;;;;;;4963158;29;20175;-79
2022/01/12 10:32:26;;;;;;;11.10;9.90;;;5.10;1.00;;;;;;4964441;29;20182;-78
2022/01/12 10:34:52;;;;;;;11.13;10.00;;;5.40;1.00;;;;;;4962005;28;20752;-78
2022/01/12 10:37:22;;;;;;;12.37;10.30;;;5.70;1.00;;;;;;4967983;28;20218;-79
2022/01/12 10:39:49;;;;;;;11.33;9.43;;;5.60;1.00;;;;;;4966079;29;20206;-79
2022/01/12 10:42:20;;;;;;;13.10;11.70;;;5.50;1.00;;;;;;4960635;29;20171;-78
2022/01/12 10:44:49;;;;;;;10.70;9.40;;;5.70;1.00;;;;;;4958914;28;20198;-79
2022/01/12 10:47:27;;;;;;;9.70;8.67;;;6.30;1.00;;;;;;4954461;29;20210;-79
2022/01/12 10:49:52;;;;;;;11.57;9.60;;;6.10;1.00;;;;;;4954123;29;20195;-80
2022/01/12 10:52:18;;;;;;;11.60;10.27;;;6.20;1.00;;;;;;4952449;29;20206;-79
2022/01/12 10:54:52;;;;;;;12.13;10.37;;;6.10;1.00;;;;;;4960293;29;20195;-80
2022/01/12 10:57:25;;;;;;;11.43;10.17;;;5.40;1.00;;;;;;4966871;29;20218;-79
2022/01/12 11:00:10;;;;;;;12.83;11.03;;;6.10;1.00;;;;;;4972058;29;20190;-79
2022/01/12 11:02:38;;;;;;;12.27;9.77;;;5.80;1.00;;;;;;4972775;28;20175;-79
2022/01/12 11:05:06;;;;;;;13.37;9.80;;;5.80;1.00;;;;;;4954616;28;20195;-79
2022/01/12 11:07:32;;;;;;;10.73;9.23;;;5.50;1.00;;;;;;4950503;29;20309;-78
2022/01/12 11:10:00;;;;;;;11.87;10.03;;;5.20;1.00;;;;;;4954307;28;20601;-78
2022/01/12 11:12:26;;;;;;;13.80;10.63;;;5.60;1.00;;;;;;4955789;29;20178;-79
2022/01/12 11:14:52;;;;;;;11.87;9.90;;;6.30;1.00;;;;;;4950043;29;20332;-78
2022/01/12 11:17:18;;;;;;;11.73;9.83;;;6.20;1.00;;;;;;4950966;29;20223;-79
2022/01/12 11:19:57;;;;;;;11.50;9.77;;;5.90;1.00;;;;;;4955476;29;20183;-77
2022/01/12 11:22:43;;;;;;;10.17;9.07;;;6.30;1.00;;;;;;4954991;29;20183;-80
2022/01/12 11:25:32;;;;;;;10.17;8.90;;;7.40;1.00;;;;;;4953405;29;20203;-78
2022/01/12 11:28:21;;;;;;;10.00;8.93;;;8.50;1.00;;;;;;4953494;29;20190;-78
2022/01/12 11:30:50;;;;;;;10.73;9.20;;;9.90;1.00;;;;;;4950792;28;20190;-79
2022/01/12 11:33:17;;;;;;;11.10;9.73;;;9.20;1.00;;;;;;4958166;29;20174;-80
2022/01/12 11:35:46;;;;;;;11.07;8.53;;;10.00;1.00;;;;;;4957398;28;20237;-79
2022/01/12 11:38:35;;;;;;;10.00;8.37;;;10.10;1.00;;;;;;4958129;28;20705;-77
2022/01/12 11:41:12;;;;;;;11.53;9.13;;;10.00;1.00;;;;;;4957438;29;20183;-76
2022/01/12 11:44:08;;;;;;;10.03;9.03;;;9.80;1.00;;;;;;4956551;29;20178;-79
2022/01/12 11:46:45;;;;;;;11.53;10.00;;;8.70;1.00;;;;;;4954282;29;20615;-77
2022/01/12 11:49:12;;;;;;;11.32;10.23;;;8.90;1.00;;;;;;4947964;29;20438;-80
2022/01/12 11:51:43;;;;;;;11.30;10.20;;;8.00;1.00;;;;;;4948768;28;20183;-79
2022/01/12 11:54:17;;;;;;;12.10;9.93;;;7.60;1.00;;;;;;4958166;28;20183;-79
2022/01/12 11:57:00;;;;;;;11.33;10.13;;;7.00;1.00;;;;;;4950640;28;20203;-77
2022/01/12 11:59:28;;;;;;;12.47;10.23;;;6.20;1.00;;;;;;4956841;28;20594;-77
2022/01/12 12:02:11;;;;;;;12.40;10.00;;;5.50;1.00;;;;;;4956188;28;20640;-79
2022/01/12 12:04:37;;;;;;;12.27;10.37;;;5.30;1.00;;;;;;4958084;29;20179;-78
2022/01/12 12:07:14;;;;;;;13.43;10.73;;;4.50;1.00;;;;;;4955416;28;20594;-79
2022/01/12 12:09:53;;;;;;;17.30;11.07;;;5.00;1.00;;;;;;4958879;28;20186;-80
2022/01/12 12:12:33;;;;;;;13.53;10.27;;;5.60;1.00;;;;;;4942757;29;20186;-78
2022/01/12 12:15:02;;;;;;;11.40;10.30;;;4.50;1.00;;;;;;4957914;29;20289;-79
2022/01/12 12:17:30;;;;;;;12.20;10.53;;;6.00;1.00;;;;;;4958465;28;20582;-79
2022/01/12 12:19:56;;;;;;;11.50;10.03;;;8.00;1.00;;;;;;4958010;28;20182;-79
2022/01/12 12:22:44;;;;;;;13.60;10.30;;;7.80;1.00;;;;;;4956928;29;20210;-80
2022/01/12 12:25:17;;;;;;;12.87;11.43;;;6.60;1.00;;;;;;4956626;29;20270;-79
2022/01/12 12:27:52;;;;;;;13.20;10.80;;;6.80;1.00;;;;;;4956103;28;20238;-79
2022/01/12 12:30:19;;;;;;;13.33;11.00;;;6.20;1.00;;;;;;4955437;28;20188;-78
2022/01/12 12:32:47;;;;;;;12.60;10.33;;;7.30;1.00;;;;;;4955926;28;20201;-78
2022/01/12 12:35:28;;;;;;;12.63;10.60;;;8.20;1.00;;;;;;4954745;28;20214;-77
2022/01/12 12:37:57;;;;;;;13.63;11.53;;;7.00;1.00;;;;;;4956971;28;20232;-79
2022/01/12 12:40:31;;;;;;;12.13;10.50;;;7.90;1.00;;;;;;4956325;29;20178;-77
2022/01/12 12:43:20;;;;;;;12.10;10.50;;;8.10;1.00;;;;;;4956098;28;20174;-79
2022/01/12 12:45:51;;;;;;;14.30;11.00;;;7.60;1.00;;;;;;4954506;29;20567;-78
2022/01/12 12:48:26;;;;;;;13.10;10.80;;;7.60;1.00;;;;;;4955134;28;20175;-77
2022/01/12 12:51:05;;;;;;;14.60;11.27;;;7.80;1.00;;;;;;4955183;28;20190;-79
2022/01/12 12:53:33;;;;;;;14.27;11.33;;;7.90;1.00;;;;;;4955579;28;20270;-78
2022/01/12 12:55:59;;;;;;;12.27;10.43;;;8.70;1.00;;;;;;4955008;29;20623;-78
2022/01/12 12:58:26;;;;;;;13.53;10.67;;;9.00;1.00;;;;;;4955008;28;20302;-80
2022/01/12 13:00:52;;;;;;;15.97;10.93;;;7.70;1.00;;;;;;4955356;28;20270;-79
2022/01/12 13:03:18;;;;;;;12.57;10.63;;;6.70;1.00;;;;;;4956132;29;20779;-80
2022/01/12 13:05:43;;;;;;;12.40;10.37;;;6.40;1.00;;;;;;4959165;29;20198;-77
2022/01/12 13:08:10;;;;;;;12.07;10.53;;;6.40;1.00;;;;;;4967233;29;20655;-79
2022/01/12 13:10:37;;;;;;;12.33;10.23;;;6.90;1.00;;;;;;4961861;29;20183;-77
2022/01/12 13:13:09;;;;;;;13.97;11.13;;;7.60;1.00;;;;;;4955820;29;20182;-77
2022/01/12 13:15:42;;;;;;;13.17;10.80;;;8.50;1.00;;;;;;4949282;29;20216;-77
2022/01/12 13:18:15;;;;;;;12.47;10.43;;;9.50;1.00;;;;;;4942867;28;20222;-79
2022/01/12 13:23:39;;;;;;;12.23;10.77;;;8.70;1.00;;;;;;4953434;28;20264;-79
2022/01/12 13:26:07;;;;;;;12.57;9.93;;;9.20;1.00;;;;;;4955758;29;20206;-80
2022/01/12 13:28:37;;;;;;;11.77;10.50;;;10.30;1.00;;;;;;4957982;29;20190;-79
2022/01/12 13:31:06;;;;;;;13.63;11.27;;;9.90;1.00;;;;;;4946649;29;20260;-79
2022/01/12 13:33:37;;;;;;;11.93;10.63;;;9.70;1.00;;;;;;4965115;29;20210;-79
2022/01/12 13:36:32;;;;;;;11.57;10.37;;;9.60;1.00;;;;;;4971195;29;20262;-78
2022/01/12 13:39:02;;;;;;;14.33;10.40;;;9.80;1.00;;;;;;4971598;29;20223;-78
2022/01/12 13:41:31;;;;;;;12.10;10.83;;;10.10;1.00;;;;;;4968949;29;20202;-79
2022/01/12 13:44:11;;;;;;;13.77;10.13;;;10.60;1.00;;;;;;4969227;29;20182;-77
2022/01/12 13:46:52;;;;;;;12.80;10.17;;;10.90;1.00;;;;;;4970515;28;20202;-79
2022/01/12 13:51:56;;;;;;;13.50;10.23;;;11.00;1.00;;;;;;4952839;29;20229;-78
2022/01/12 13:54:23;;;;;;;13.67;9.87;;;11.10;1.00;;;;;;4954792;28;20209;-77
2022/01/12 13:56:53;;;;;;;11.73;10.50;;;10.90;1.00;;;;;;4957038;29;20229;-78
2022/01/12 13:59:20;;;;;;;14.23;11.10;;;10.50;1.00;;;;;;4960349;29;20565;-79
2022/01/12 14:01:46;;;;;;;12.43;9.83;;;10.30;1.00;;;;;;4960033;29;20282;-78
2022/01/12 14:04:23;;;;;;;13.77;10.80;;;10.60;1.00;;;;;;4956829;29;20245;-77
2022/01/12 14:06:52;;;;;;;12.83;11.00;;;10.50;1.00;;;;;;4956292;29;20289;-78
2022/01/12 14:09:35;;;;;;;14.10;11.00;;;10.60;1.00;;;;;;4955259;29;20182;-78
2022/01/12 14:12:16;;;;;;;16.13;10.70;;;10.60;1.00;;;;;;4956778;29;20190;-78